createdAt,value
2019-04-03T00:02:31.000Z,20.51
2019-04-03T00:12:31.000Z,20.48
2019-04-03T00:22:31.000Z,20.45
2019-04-03T00:32:31.000Z,20.44
2019-04-03T00:42:31.000Z,20.41
2019-04-03T00:52:32.000Z,20.37
2019-04-03T01:02:32.000Z,20.37
2019-04-03T01:12:34.000Z,20.35
2019-04-03T01:22:32.000Z,20.35
2019-04-03T01:32:32.000Z,20.33
2019-04-03T01:42:32.000Z,20.3
2019-04-03T01:52:32.000Z,20.27
2019-04-03T02:02:32.000Z,20.23
2019-04-03T02:12:32.000Z,20.21
2019-04-03T02:22:32.000Z,20.23
2019-04-03T02:32:32.000Z,20.2
2019-04-03T02:42:32.000Z,20.18
2019-04-03T02:52:32.000Z,20.18
2019-04-03T03:02:32.000Z,20.15
2019-04-03T03:12:32.000Z,20.17
2019-04-03T03:22:36.000Z,20.13
2019-04-03T03:32:32.000Z,20.11
2019-04-03T03:42:32.000Z,20.07
2019-04-03T03:52:33.000Z,20.05
2019-04-03T04:02:34.000Z,20.03
2019-04-03T04:12:32.000Z,20.05
2019-04-03T04:22:32.000Z,19.99
2019-04-03T04:32:32.000Z,19.98
2019-04-03T04:42:32.000Z,19.99
2019-04-03T04:52:32.000Z,19.96
2019-04-03T05:02:32.000Z,19.92
2019-04-03T05:12:32.000Z,19.91
2019-04-03T05:22:33.000Z,19.87
2019-04-03T05:32:32.000Z,19.86
2019-04-03T05:42:32.000Z,19.86
2019-04-03T05:52:32.000Z,19.84
2019-04-03T06:02:32.000Z,19.82
2019-04-03T06:12:32.000Z,19.78
2019-04-03T06:22:32.000Z,19.77
2019-04-03T06:32:32.000Z,19.77
2019-04-03T06:42:32.000Z,19.78
2019-04-03T06:52:33.000Z,19.85
2019-04-03T07:02:32.000Z,19.81
2019-04-03T07:12:32.000Z,19.8
2019-04-03T07:22:32.000Z,19.79
2019-04-03T07:32:32.000Z,19.8
2019-04-03T07:42:35.000Z,19.79
2019-04-03T07:52:32.000Z,19.76
2019-04-03T08:02:32.000Z,19.77
2019-04-03T08:12:34.000Z,19.75
2019-04-03T08:22:32.000Z,19.72
2019-04-03T08:32:32.000Z,19.74
2019-04-03T08:42:32.000Z,19.73
2019-04-03T08:52:32.000Z,19.7
2019-04-03T09:02:33.000Z,19.7
2019-04-03T09:12:32.000Z,19.66
2019-04-03T09:22:33.000Z,19.65
2019-04-03T09:32:33.000Z,19.64
2019-04-03T09:42:33.000Z,19.63
2019-04-03T09:52:33.000Z,19.63
2019-04-03T10:02:33.000Z,19.65
2019-04-03T10:12:35.000Z,19.7
2019-04-03T10:22:33.000Z,19.79
2019-04-03T10:32:33.000Z,19.84
2019-04-03T10:52:35.000Z,19.98
2019-04-03T11:02:33.000Z,20
2019-04-03T11:12:36.000Z,19.99
2019-04-03T11:22:33.000Z,19.97
2019-04-03T11:32:33.000Z,19.94
2019-04-03T11:42:33.000Z,19.94
2019-04-03T11:52:33.000Z,19.94
2019-04-03T12:02:33.000Z,19.94
2019-04-03T12:12:33.000Z,19.96
2019-04-03T12:22:33.000Z,19.95
2019-04-03T12:32:36.000Z,19.96
2019-04-03T12:42:33.000Z,20.03
2019-04-03T12:52:33.000Z,20.02
2019-04-03T13:02:33.000Z,19.98
2019-04-03T13:12:34.000Z,19.96
2019-04-03T13:22:35.000Z,19.94
2019-04-03T13:32:33.000Z,19.93
2019-04-03T13:42:33.000Z,19.98
2019-04-03T13:52:36.000Z,20.03
2019-04-03T14:02:34.000Z,20.07
2019-04-03T14:12:33.000Z,20.1
2019-04-03T14:22:35.000Z,20.08
2019-04-03T14:32:33.000Z,20.07
2019-04-03T14:42:33.000Z,20.05
2019-04-03T14:52:33.000Z,20.02
2019-04-03T15:02:33.000Z,20
2019-04-03T15:12:33.000Z,19.99
2019-04-03T15:22:34.000Z,19.99
2019-04-03T15:32:33.000Z,19.96
2019-04-03T15:42:33.000Z,19.95
2019-04-03T15:52:33.000Z,19.98
2019-04-03T16:02:35.000Z,20.02
2019-04-03T16:12:33.000Z,20.03
2019-04-03T16:22:34.000Z,20.01
2019-04-03T16:52:34.000Z,19.98
2019-04-03T17:02:33.000Z,19.97
2019-04-03T17:22:33.000Z,19.98
2019-04-03T17:32:36.000Z,20.02
2019-04-03T17:42:34.000Z,19.94
2019-04-03T17:52:34.000Z,19.9
2019-04-03T18:12:34.000Z,19.78
2019-04-03T18:22:35.000Z,19.75
2019-04-03T18:32:34.000Z,19.72
2019-04-03T18:52:35.000Z,19.68
2019-04-03T19:02:34.000Z,19.67
2019-04-03T19:12:36.000Z,19.65
2019-04-03T19:32:34.000Z,19.61
2019-04-03T19:42:35.000Z,19.59
2019-04-03T19:52:34.000Z,19.6
2019-04-03T20:12:34.000Z,19.51
2019-04-03T20:22:37.000Z,19.51
2019-04-03T20:32:34.000Z,19.5
2019-04-03T20:42:34.000Z,19.48
2019-04-03T20:52:35.000Z,19.46
2019-04-03T21:12:35.000Z,19.39
2019-04-03T21:32:34.000Z,19.34
2019-04-03T21:42:34.000Z,19.31
2019-04-03T21:52:34.000Z,19.29
2019-04-03T22:02:34.000Z,19.27
2019-04-03T22:12:34.000Z,19.26
2019-04-03T22:22:34.000Z,19.23
2019-04-03T22:32:35.000Z,19.21
2019-04-03T22:42:34.000Z,19.19
2019-04-03T22:52:34.000Z,19.18
2019-04-03T23:02:34.000Z,19.18
2019-04-03T23:12:34.000Z,19.17
2019-04-03T23:22:34.000Z,19.13
2019-04-03T23:42:35.000Z,19.09
2019-04-03T23:52:34.000Z,19.08
